Meteo Giornale » Osservazioni meteo Corea del Sud » Gumi Tmq-53P

ore: 23:50 - Osservazioni Meteo Gumi Tmq-53P
Lat. 36° 6' N Lon. 128° 18' E Alt. 43 metri s.l.m.

nuvoloso_piovaschi

25 °C

Pioggia

Temp. 24 Ore

24 °C

33 °C

Nord

5.5 Km/h

Dew point 26 °C

Umidità 0 %

Visibilità  5 Km

Il sole sorge alle ore 05:59

Il sole tramonta alle ore 18:54

Data e Ora Cielo e Fenomeni T °C DP °C Um. % Pres. hPa Vis. km Vento km/h
Ieri h: 23:50 nuvoloso_piovaschi Pioggia 25 26 0 0 5 N 5.5
Ieri h: 23:40 nuvoloso_piovaschi Pioggia 25 26 0 0 6 N 3.7
Ieri h: 23:30 nuvoloso_piovaschi Pioggia 25 26 0 0 6 N 3.7
Ieri h: 23:20 nuvoloso_piovaschi Pioggia 25 26 0 0 8 N 3.7
Ieri h: 23:10 nuvoloso_piovaschi Pioggia 25 26 0 0 5 N 3.7
Ieri h: 23:00 nuvoloso_piovaschi Pioggia 25 26 0 0 4 N 3.7
Ieri h: 22:50 coperto_pioggia Pioggia Foschia 25 26 0 0 4 N 5.5
Ieri h: 22:40 molto_nuvoloso Molto Nuvoloso 25 26 0 0 9 N 3.7
Ieri h: 22:30 molto_nuvoloso Molto Nuvoloso 25 26 0 0 10 N 3.7
Ieri h: 22:20 molto_nuvoloso Molto Nuvoloso 25 26 0 0 10 N 5.5
Ieri h: 22:10 molto_nuvoloso Molto Nuvoloso 25 26 0 0 10 N 3.7
Ieri h: 22:00 molto_nuvoloso Molto Nuvoloso 25 26 0 0 10 N 3.7
Ieri h: 21:50 molto_nuvoloso Molto Nuvoloso 25 26 0 0 10 N 1.8
Ieri h: 21:40 molto_nuvoloso Molto Nuvoloso 25 26 0 0 10 N 1.8
Ieri h: 21:30 molto_nuvoloso Molto Nuvoloso 25 26 0 0 10 N 1.8
Ieri h: 21:20 molto_nuvoloso Molto Nuvoloso 25 26 0 0 10 N 5.5
Ieri h: 21:10 coperto_pioggia Pioggia 25 26 0 0 10 S 7.4
Ieri h: 21:00 coperto_pioggia Pioggia 25 26 0 0 10 N 3.7
Ieri h: 20:50 coperto_pioggia Pioggia 25 26 0 1010 9 N 0
Ieri h: 20:40 coperto_pioggia Pioggia 27 25 88 0 6 N 1.8
Ieri h: 20:30 coperto_pioggia Pioggia 27 25 88 0 3 N 5.5
Ieri h: 20:20 coperto_pioggia Pioggia 27 25 88 0 2 N 1.8
Ieri h: 20:10 coperto_pioggia Pioggia 27 25 88 0 5 N 3.7
Ieri h: 20:00 nuvoloso_piovaschi Pioggia 27 25 88 0 10 N 5.5
Ieri h: 19:50 nuvoloso_piovaschi Pioggia 27 25 88 0 8 N 7.4
Ieri h: 19:40 nuvoloso_piovaschi Pioggia 27 25 88 0 5 N 1.8
Ieri h: 19:30 nuvoloso_piovaschi Pioggia 27 25 88 0 1 N 3.7
Ieri h: 19:20 nuvoloso_piovaschi Pioggia 27 25 88 0 4 N 5.5
Ieri h: 19:10 coperto_pioggia Pioggia 27 25 88 0 4 N 9.3
Ieri h: 19:00 molto_nuvoloso Molto Nuvoloso 27 25 88 1008 10 N 5.5
Ieri h: 18:50 molto_nuvoloso Molto Nuvoloso 28 24 78 1008 10 NO 7.4
Ieri h: 18:40 molto_nuvoloso Molto Nuvoloso 28 24 78 1008 10 N 3.7
Ieri h: 18:30 molto_nuvoloso Molto Nuvoloso 28 24 78 1008 10 N 3.7
Ieri h: 18:20 molto_nuvoloso Molto Nuvoloso 28 24 78 1008 10 N 5.5
Ieri h: 18:10 molto_nuvoloso Molto Nuvoloso 28 25 83 1008 10 N 5.5
Ieri h: 18:00 molto_nuvoloso Molto Nuvoloso 30 23 66 1008 10 SO 7.4
Ieri h: 17:50 molto_nuvoloso Molto Nuvoloso 30 23 66 1007 10 S 13
Ieri h: 17:40 molto_nuvoloso Molto Nuvoloso 30 23 66 1007 10 S 11.1
Ieri h: 17:30 poco_nuvoloso Poco Nuvoloso 30 23 66 1007 10 S 7.4
Ieri h: 17:20 sereno Sereno 30 23 66 1007 10 S 13
Ieri h: 17:10 poco_nuvoloso Poco Nuvoloso 30 23 66 1007 10 S/SE 11.1
Ieri h: 17:00 nuvoloso Nuvoloso 31 23 62 1007 10 S/SE 9.3
Ieri h: 16:50 molto_nuvoloso Molto Nuvoloso 30 23 66 1007 10 S 13
Ieri h: 16:40 molto_nuvoloso Molto Nuvoloso 30 24 70 1007 10 S 13
Ieri h: 16:30 molto_nuvoloso Molto Nuvoloso 30 24 70 1007 10 S 13
Ieri h: 16:20 molto_nuvoloso Molto Nuvoloso 31 23 62 1007 10 S 13
Ieri h: 16:10 molto_nuvoloso Molto Nuvoloso 31 23 62 1007 10 S/SO 7.4
Ieri h: 16:00 molto_nuvoloso Molto Nuvoloso 31 23 62 1007 10 S/SE 7.4
Ieri h: 15:50 molto_nuvoloso Molto Nuvoloso 32 22 55 1007 10 SO 7.4
Ieri h: 15:40 nuvoloso Nuvoloso 32 22 55 1007 10 S 9.3
Ieri h: 15:30 molto_nuvoloso Molto Nuvoloso 33 22 52 1007 10 S/SO 7.4
Ieri h: 15:20 nuvoloso Nuvoloso 33 22 52 1007 10 S/SO 11.1
Ieri h: 15:10 molto_nuvoloso Molto Nuvoloso 32 22 55 1007 10 N 3.7
Ieri h: 15:00 nuvoloso Nuvoloso 33 23 55 1007 10 N 5.5
Ieri h: 14:50 molto_nuvoloso Molto Nuvoloso 33 23 55 1007 10 S 11.1
Ieri h: 14:40 nuvoloso Nuvoloso 33 23 55 1007 10 N 5.5
Ieri h: 14:30 poco_nuvoloso Poco Nuvoloso 32 23 59 1007 10 S 9.3
Ieri h: 14:20 poco_nuvoloso Poco Nuvoloso 32 22 55 1007 10 S 9.3
Ieri h: 14:10 poco_nuvoloso Poco Nuvoloso 32 23 59 1008 10 S/SE 7.4
Ieri h: 14:00 nuvoloso Nuvoloso 33 23 55 1008 10 S 7.4
Ieri h: 13:50 molto_nuvoloso Molto Nuvoloso 32 22 55 1008 10 S 11.1
Ieri h: 13:40 molto_nuvoloso Molto Nuvoloso 32 23 59 1008 10 N 3.7
Ieri h: 13:30 molto_nuvoloso Molto Nuvoloso 31 22 58 1008 10 S 13
Ieri h: 13:20 molto_nuvoloso Molto Nuvoloso 31 22 58 1008 10 S/SO 9.3
Ieri h: 13:10 molto_nuvoloso Molto Nuvoloso 31 22 58 1008 10 S 9.3
Ieri h: 13:00 nuvoloso Nuvoloso 32 23 59 1008 10 N 5.5
Ieri h: 12:50 nuvoloso Nuvoloso 31 22 58 1008 10 N 3.7
Ieri h: 12:40 molto_nuvoloso Molto Nuvoloso 32 23 59 1008 10 N 5.5
Ieri h: 12:30 nuvoloso Nuvoloso 31 23 62 1008 10 N 5.5
Ieri h: 12:20 molto_nuvoloso Molto Nuvoloso 31 23 62 1008 10 SO 9.3
Ieri h: 12:10 molto_nuvoloso Molto Nuvoloso 31 23 62 1008 10 N 5.5
Ieri h: 12:00 molto_nuvoloso Molto Nuvoloso 31 23 62 1009 10 N 5.5
Ieri h: 11:50 molto_nuvoloso Molto Nuvoloso 31 23 62 1009 10 N 1.8
Ieri h: 11:40 molto_nuvoloso Molto Nuvoloso 31 23 62 1009 10 N 5.5
Ieri h: 11:30 molto_nuvoloso Molto Nuvoloso 30 23 66 1009 10 N 5.5
Ieri h: 11:20 molto_nuvoloso Molto Nuvoloso 30 23 66 1009 10 N 1.8
Ieri h: 11:10 molto_nuvoloso Molto Nuvoloso 30 23 66 1009 10 N 3.7
Ieri h: 11:00 molto_nuvoloso Molto Nuvoloso 30 23 66 1009 10 N 3.7
Ieri h: 10:50 molto_nuvoloso Molto Nuvoloso 30 23 66 1009 10 N 1.8
Ieri h: 10:40 poco_nuvoloso Poco Nuvoloso 30 22 62 1009 10 S 7.4
Ieri h: 10:30 poco_nuvoloso Poco Nuvoloso 31 22 58 1009 10 N 1.8
Ieri h: 10:20 poco_nuvoloso Poco Nuvoloso 30 23 66 1009 10 N 5.5
Ieri h: 10:10 nuvoloso Nuvoloso 30 23 66 1009 10 N 3.7
Ieri h: 10:00 nuvoloso Nuvoloso 30 23 66 1009 10 N 3.7
Ieri h: 09:50 nuvoloso Nuvoloso 29 23 70 1009 10 N 5.5
Ieri h: 09:40 nuvoloso Nuvoloso 29 23 70 1009 10 S/SE 11.1
Ieri h: 09:30 molto_nuvoloso Molto Nuvoloso 29 23 70 1009 10 S 9.3
Ieri h: 09:20 nuvoloso Nuvoloso 28 23 74 1009 10 N 5.5
Ieri h: 09:10 poco_nuvoloso Poco Nuvoloso 28 24 78 1009 10 N 5.5
Ieri h: 09:00 molto_nuvoloso Molto Nuvoloso 28 24 78 1009 10 S 9.3
Ieri h: 08:50 nuvoloso Nuvoloso 28 24 78 1009 10 N 3.7
Ieri h: 08:40 molto_nuvoloso Molto Nuvoloso 27 24 83 1009 10 S/SO 9.3
Ieri h: 08:30 nuvoloso Nuvoloso 27 24 83 1009 10 N 5.5
Ieri h: 08:20 nuvoloso Nuvoloso 27 24 83 1009 10 N 5.5
Ieri h: 08:10 poco_nuvoloso Poco Nuvoloso 26 25 94 1009 10 N 0
Ieri h: 08:00 sereno Sereno 25 25 100 1010 10 N 1.8
Ieri h: 07:50 sereno Sereno 25 25 100 1010 10 N 5.5
Ieri h: 07:40 sereno Sereno 24 24 100 1009 10 N 3.7
Ieri h: 07:30 sereno Sereno 26 25 94 1009 10 N 3.7
Ieri h: 07:20 sereno Sereno 25 25 100 1009 10 S 7.4
Ieri h: 07:10 sereno Sereno 26 25 94 1009 10 S 7.4
Ieri h: 07:00 poco_nuvoloso Poco Nuvoloso 25 25 100 1009 10 S 11.1
Ieri h: 06:50 poco_nuvoloso Poco Nuvoloso 25 25 100 1009 10 S 7.4
Ieri h: 06:40 poco_nuvoloso Poco Nuvoloso 25 25 100 1009 10 S 11.1
Ieri h: 06:30 poco_nuvoloso Poco Nuvoloso 25 25 100 1009 10 S 9.3
Ieri h: 06:20 poco_nuvoloso Poco Nuvoloso 25 25 100 1009 10 S 13
Ieri h: 06:10 sereno Sereno 25 25 100 1009 10 S 13
Ieri h: 06:00 poco_nuvoloso Poco Nuvoloso 25 25 100 1009 10 S 9.3
Ieri h: 05:50 poco_nuvoloso Poco Nuvoloso 25 25 100 1008 10 S/SE 7.4
Ieri h: 05:40 poco_nuvoloso Poco Nuvoloso 25 25 100 1008 10 S 9.3
Ieri h: 05:20 poco_nuvoloso Poco Nuvoloso 25 25 100 1008 10 N 3.7
Ieri h: 05:10 poco_nuvoloso Poco Nuvoloso 25 25 100 1008 10 S 7.4
Ieri h: 05:00 poco_nuvoloso Poco Nuvoloso 26 26 100 1008 10 S 7.4
Ieri h: 04:50 sereno Sereno 26 26 100 1008 10 S/SE 7.4
Ieri h: 04:40 sereno Sereno 26 26 100 1008 10 S 7.4
Ieri h: 04:30 poco_nuvoloso Poco Nuvoloso 26 26 100 1008 10 N 5.5
Ieri h: 04:20 poco_nuvoloso Poco Nuvoloso 26 25 94 1008 10 N 5.5
Ieri h: 04:10 poco_nuvoloso Poco Nuvoloso 26 25 94 1008 10 S 11.1
Ieri h: 04:00 poco_nuvoloso Poco Nuvoloso 26 25 94 1008 10 N 5.5
Ieri h: 03:50 poco_nuvoloso Poco Nuvoloso 26 25 94 1008 10 N 5.5
Ieri h: 03:40 nuvoloso Nuvoloso 26 25 94 1008 10 S/SE 9.3
Ieri h: 03:30 molto_nuvoloso Molto Nuvoloso 26 25 94 1008 10 S 7.4
Ieri h: 03:20 molto_nuvoloso Molto Nuvoloso 26 26 100 1008 10 S 9.3
Ieri h: 03:10 nuvoloso Nuvoloso 25 25 100 1008 10 S 7.4
Ieri h: 03:00 poco_nuvoloso Poco Nuvoloso 24 25 0 0 10 N 0
Ieri h: 02:50 poco_nuvoloso Poco Nuvoloso 24 25 0 0 10 N 3.7
Ieri h: 02:40 poco_nuvoloso Poco Nuvoloso 24 25 0 0 10 N 1.8
Ieri h: 02:30 poco_nuvoloso Poco Nuvoloso 24 25 0 0 10 N 3.7
Ieri h: 02:20 poco_nuvoloso Poco Nuvoloso 24 25 0 1008 10 N 1.8
Ieri h: 02:10 poco_nuvoloso Poco Nuvoloso 25 25 100 1008 10 N 1.8
Ieri h: 02:00 nuvoloso Nuvoloso 24 26 0 1008 10 N 1.8
Ieri h: 01:50 molto_nuvoloso Molto Nuvoloso 24 24 100 0 10 N 1.8
Ieri h: 01:40 molto_nuvoloso Molto Nuvoloso 24 24 100 0 10 N 3.7
Ieri h: 01:30 molto_nuvoloso Molto Nuvoloso 24 24 100 1008 10 N 1.8
Ieri h: 01:20 molto_nuvoloso Molto Nuvoloso 25 25 100 1008 10 N 1.8
Ieri h: 01:10 molto_nuvoloso Molto Nuvoloso 25 25 100 1008 10 N 1.8
Ieri h: 01:00 molto_nuvoloso Molto Nuvoloso 25 26 0 1008 10 N 3.7
Ieri h: 00:50 molto_nuvoloso Molto Nuvoloso 24 25 0 1009 10 N 1.8
Ieri h: 00:40 molto_nuvoloso Molto Nuvoloso 24 25 0 0 10 N 5.5
Previsioni Meteo per località vicine a Gumi Tmq-53P